Time;durP1;ratioP1;P1;durP2;ratioP2;P2;SDS_P1;SDS_P2;PMS_P1;PMS_P2;Temp;Humidity;BMP_temperature;BMP_pressure;BME280_temperature;BME280_humidity;BME280_pressure;Samples;Min_cycle;Max_cycle;Signal;HPM_P1;HPM_P2
2023/10/06 00:00:46;;;;;;;2.85;0.98;;;13.40;94.50;;;;;;4879653;29;20060;-86
2023/10/06 00:03:22;;;;;;;2.97;1.00;;;13.30;94.50;;;;;;4879060;29;20056;-86
2023/10/06 00:05:49;;;;;;;3.28;1.05;;;13.30;94.50;;;;;;4879046;29;20104;-85
2023/10/06 00:08:17;;;;;;;2.67;1.02;;;13.30;94.60;;;;;;4863729;29;20049;-85
2023/10/06 00:10:50;;;;;;;2.65;0.90;;;13.20;94.60;;;;;;4864195;29;20045;-85
2023/10/06 00:13:19;;;;;;;2.47;1.05;;;13.20;94.60;;;;;;4878811;29;20408;-85
2023/10/06 00:15:49;;;;;;;5.22;1.00;;;13.10;94.70;;;;;;4879313;29;20045;-85
2023/10/06 00:18:23;;;;;;;2.72;1.08;;;13.10;94.70;;;;;;4878878;29;20053;-85
2023/10/06 00:20:55;;;;;;;3.55;0.93;;;13.10;94.70;;;;;;4851757;29;20063;-85
2023/10/06 00:23:27;;;;;;;3.78;1.00;;;13.10;94.70;;;;;;4878869;29;20501;-85
2023/10/06 00:25:55;;;;;;;4.70;1.17;;;13.10;94.80;;;;;;4879019;29;20061;-85
2023/10/06 00:28:26;;;;;;;6.15;1.33;;;13.10;94.80;;;;;;4863636;29;20084;-86
2023/10/06 00:31:06;;;;;;;3.13;1.20;;;13.10;94.70;;;;;;4879061;29;20067;-84
2023/10/06 00:33:33;;;;;;;3.25;0.82;;;13.10;94.70;;;;;;4878556;29;20088;-85
2023/10/06 00:36:13;;;;;;;2.13;0.70;;;13.10;94.80;;;;;;4878726;29;20112;-85
2023/10/06 00:38:51;;;;;;;4.25;1.00;;;13.10;94.80;;;;;;4863765;29;20116;-85
2023/10/06 00:41:20;;;;;;;3.30;0.90;;;13.10;94.80;;;;;;4867136;29;20057;-85
2023/10/06 00:43:49;;;;;;;2.15;0.88;;;13.00;94.80;;;;;;4866829;29;20499;-85
2023/10/06 00:46:20;;;;;;;3.55;0.82;;;13.00;94.80;;;;;;4882303;29;20049;-85
2023/10/06 00:48:56;;;;;;;3.53;1.00;;;13.00;94.90;;;;;;4882391;29;20078;-85
2023/10/06 00:51:26;;;;;;;5.10;1.00;;;12.90;94.90;;;;;;4897591;29;20088;-85
2023/10/06 00:53:58;;;;;;;2.97;1.20;;;12.90;94.90;;;;;;4882548;29;20056;-85
2023/10/06 00:56:27;;;;;;;3.03;1.00;;;12.90;94.90;;;;;;4882035;29;20076;-86
2023/10/06 00:58:55;;;;;;;2.88;1.13;;;12.90;94.90;;;;;;4882322;29;20463;-86
2023/10/06 01:01:22;;;;;;;3.75;1.05;;;12.90;94.90;;;;;;4882086;29;20053;-85
2023/10/06 01:06:34;;;;;;;3.38;1.10;;;12.90;94.90;;;;;;4882053;29;21106;-85
2023/10/06 01:09:15;;;;;;;4.25;1.50;;;12.90;94.90;;;;;;4882159;29;20045;-85
2023/10/06 01:11:51;;;;;;;3.00;1.30;;;12.90;95.00;;;;;;4882189;29;20080;-85
2023/10/06 01:14:33;;;;;;;5.25;1.42;;;13.00;94.90;;;;;;4863259;29;20075;-85
2023/10/06 01:19:37;;;;;;;5.07;1.80;;;13.00;94.90;;;;;;4881886;29;20393;-85
2023/10/06 01:22:24;;;;;;;3.33;1.40;;;13.10;94.90;;;;;;4881792;29;20041;-85
2023/10/06 01:24:58;;;;;;;3.53;1.80;;;13.10;94.90;;;;;;4881434;29;20049;-85
2023/10/06 01:27:28;;;;;;;4.07;1.50;;;13.00;94.90;;;;;;4864608;29;20102;-85
2023/10/06 01:32:45;;;;;;;3.90;0.80;;;13.00;95.00;;;;;;4878543;29;20568;-85
2023/10/06 01:35:13;;;;;;;2.03;0.85;;;13.00;95.00;;;;;;4882172;29;20457;-85
2023/10/06 01:37:42;;;;;;;3.08;1.02;;;13.00;95.00;;;;;;4882031;29;20100;-85
2023/10/06 01:40:44;;;;;;;2.35;1.00;;;12.90;95.00;;;;;;4881238;29;20048;-85
2023/10/06 01:43:10;;;;;;;2.28;0.77;;;12.90;95.10;;;;;;4880213;29;20045;-85
2023/10/06 01:45:43;;;;;;;3.75;1.08;;;12.90;95.10;;;;;;4865983;29;20475;-85
2023/10/06 01:50:39;;;;;;;2.75;1.20;;;12.90;95.10;;;;;;4883107;29;20156;-85
2023/10/06 01:53:09;;;;;;;5.70;1.23;;;12.90;95.10;;;;;;4869478;29;20056;-85
2023/10/06 01:55:38;;;;;;;2.72;1.17;;;12.90;95.10;;;;;;4884247;29;20147;-85
2023/10/06 01:58:07;;;;;;;2.50;1.00;;;12.90;95.10;;;;;;4884293;29;20080;-85
2023/10/06 02:00:36;;;;;;;6.70;1.30;;;12.90;95.10;;;;;;4871815;29;20155;-85
2023/10/06 02:03:03;;;;;;;5.97;1.88;;;12.90;95.20;;;;;;4868555;29;20135;-84
2023/10/06 02:05:31;;;;;;;5.13;1.40;;;12.90;95.20;;;;;;4884267;29;20044;-85
2023/10/06 02:08:01;;;;;;;3.05;1.55;;;12.90;95.20;;;;;;4869048;29;20055;-85
2023/10/06 02:10:28;;;;;;;4.30;1.30;;;12.90;95.20;;;;;;4884169;29;20056;-85
2023/10/06 02:12:55;;;;;;;2.45;1.10;;;12.90;95.20;;;;;;4883665;29;20104;-85
2023/10/06 02:15:22;;;;;;;4.80;1.75;;;12.90;95.20;;;;;;4883829;29;20049;-85
2023/10/06 02:17:50;;;;;;;5.57;1.80;;;12.90;95.20;;;;;;4868649;29;20085;-85
2023/10/06 02:22:57;;;;;;;6.43;2.05;;;13.00;95.20;;;;;;4884420;29;20073;-85
2023/10/06 02:25:26;;;;;;;3.85;2.08;;;13.00;95.30;;;;;;4883895;29;20056;-85
2023/10/06 02:27:53;;;;;;;3.28;1.63;;;13.00;95.20;;;;;;4868165;29;20078;-85
2023/10/06 02:30:33;;;;;;;5.45;1.77;;;12.90;95.20;;;;;;4883219;29;20410;-85
2023/10/06 02:33:01;;;;;;;2.80;1.33;;;12.90;95.30;;;;;;4883542;29;20048;-85
2023/10/06 02:35:28;;;;;;;3.17;1.15;;;12.80;95.30;;;;;;4883674;29;20116;-85
2023/10/06 02:37:58;;;;;;;4.28;1.30;;;12.80;95.40;;;;;;4883308;29;20139;-85
2023/10/06 02:40:43;;;;;;;5.28;1.38;;;12.80;95.40;;;;;;4867938;29;20100;-85
2023/10/06 02:43:20;;;;;;;3.75;1.52;;;12.70;95.40;;;;;;4883304;29;20044;-85
2023/10/06 02:45:47;;;;;;;5.53;1.30;;;12.80;95.50;;;;;;4868192;29;20096;-85
2023/10/06 02:48:22;;;;;;;3.35;1.27;;;12.70;95.50;;;;;;4868048;29;20052;-85
2023/10/06 02:50:55;;;;;;;4.45;1.65;;;12.70;95.50;;;;;;4882938;29;20052;-85
2023/10/06 02:53:23;;;;;;;3.50;1.50;;;12.70;95.50;;;;;;4867913;29;20419;-85
2023/10/06 02:56:05;;;;;;;2.70;0.75;;;12.70;95.50;;;;;;4883201;29;20116;-85
2023/10/06 02:58:34;;;;;;;4.40;1.17;;;12.70;95.60;;;;;;4854781;29;20422;-85
2023/10/06 03:01:04;;;;;;;3.97;1.40;;;12.60;95.50;;;;;;4890940;29;20056;-85
2023/10/06 03:03:33;;;;;;;2.63;1.10;;;12.60;95.60;;;;;;4866034;29;20052;-85
2023/10/06 03:06:07;;;;;;;2.50;1.27;;;12.60;95.60;;;;;;4867663;29;20499;-85
2023/10/06 03:08:37;;;;;;;3.42;1.00;;;12.60;95.60;;;;;;4867778;29;20044;-85
2023/10/06 03:11:09;;;;;;;2.55;0.90;;;12.60;95.60;;;;;;4882978;29;20052;-86
2023/10/06 03:13:42;;;;;;;2.63;0.85;;;12.60;95.70;;;;;;4868587;29;20056;-86
2023/10/06 03:16:11;;;;;;;2.50;1.13;;;12.60;95.70;;;;;;4882899;29;20133;-86
2023/10/06 03:18:39;;;;;;;4.55;0.90;;;12.60;95.70;;;;;;4882715;29;20143;-85
2023/10/06 03:21:14;;;;;;;4.55;1.27;;;12.60;95.70;;;;;;4867825;29;20419;-85
2023/10/06 03:23:47;;;;;;;3.28;1.27;;;12.60;95.70;;;;;;4868072;29;20459;-85
2023/10/06 03:26:25;;;;;;;5.82;1.42;;;12.60;95.70;;;;;;4853231;29;20470;-85
2023/10/06 03:28:53;;;;;;;3.53;1.77;;;12.60;95.70;;;;;;4867184;29;20229;-86
2023/10/06 03:33:55;;;;;;;3.88;1.02;;;12.70;95.70;;;;;;4898536;29;20077;-85
2023/10/06 03:36:37;;;;;;;6.07;1.20;;;12.70;95.70;;;;;;4882516;29;20052;-86
2023/10/06 03:39:10;;;;;;;3.28;1.10;;;12.60;95.60;;;;;;4867192;29;20045;-85
2023/10/06 03:41:41;;;;;;;3.17;0.77;;;12.60;96.00;;;;;;4849951;29;20076;-85
2023/10/06 03:44:11;;;;;;;2.55;1.00;;;12.60;95.70;;;;;;4858362;29;20576;-85
2023/10/06 03:46:38;;;;;;;2.28;0.70;;;12.60;95.80;;;;;;4863491;29;20116;-85
2023/10/06 03:49:07;;;;;;;2.47;0.98;;;12.60;95.80;;;;;;4874958;29;20044;-85
2023/10/06 03:51:38;;;;;;;1.98;0.90;;;12.50;95.80;;;;;;4879624;29;20072;-85
2023/10/06 03:54:07;;;;;;;3.67;1.00;;;12.60;95.80;;;;;;4868609;29;20033;-85
2023/10/06 03:56:35;;;;;;;3.60;1.38;;;12.60;95.80;;;;;;4902159;29;20029;-86
2023/10/06 03:59:12;;;;;;;2.70;1.08;;;12.60;95.80;;;;;;4901690;29;20116;-86
2023/10/06 04:01:42;;;;;;;3.40;1.00;;;12.60;95.80;;;;;;4883900;29;20049;-86
2023/10/06 04:04:15;;;;;;;4.20;1.05;;;12.60;95.80;;;;;;4880046;29;20041;-86
2023/10/06 04:06:43;;;;;;;4.47;1.02;;;12.60;96.00;;;;;;4864820;29;20165;-86
2023/10/06 04:09:11;;;;;;;1.92;0.77;;;12.60;95.80;;;;;;4864428;29;20500;-85
2023/10/06 04:11:38;;;;;;;4.13;1.08;;;12.60;95.70;;;;;;4879557;29;20499;-86
2023/10/06 04:14:05;;;;;;;5.35;1.17;;;12.60;95.80;;;;;;4894236;29;20049;-85
2023/10/06 04:16:42;;;;;;;3.85;2.03;;;12.60;95.80;;;;;;4854936;29;20152;-85
2023/10/06 04:19:09;;;;;;;6.18;1.75;;;12.70;95.80;;;;;;4849947;29;20057;-85
2023/10/06 04:21:36;;;;;;;4.60;1.45;;;12.70;95.80;;;;;;4848540;29;20063;-85
2023/10/06 04:24:04;;;;;;;3.80;1.20;;;12.70;96.00;;;;;;4879075;29;20132;-85
2023/10/06 04:26:31;;;;;;;2.67;0.98;;;12.70;95.80;;;;;;4863389;29;20049;-85
2023/10/06 04:28:59;;;;;;;2.40;1.08;;;12.70;95.80;;;;;;4894560;29;20033;-85
2023/10/06 04:31:26;;;;;;;3.88;1.17;;;12.70;95.80;;;;;;4863838;29;20059;-85
2023/10/06 04:33:53;;;;;;;2.38;0.80;;;12.60;95.80;;;;;;4879429;29;20083;-85
2023/10/06 04:36:23;;;;;;;5.05;1.17;;;12.60;95.90;;;;;;4863582;29;20093;-86
2023/10/06 04:38:50;;;;;;;2.08;1.00;;;12.60;95.90;;;;;;4879200;29;20045;-86
2023/10/06 04:41:20;;;;;;;4.20;0.98;;;12.60;95.90;;;;;;4863664;29;20074;-85
2023/10/06 04:43:48;;;;;;;3.92;1.20;;;12.60;95.90;;;;;;4863398;29;20045;-85
2023/10/06 04:46:15;;;;;;;3.05;1.20;;;12.60;95.90;;;;;;4863344;29;20165;-85
2023/10/06 04:48:42;;;;;;;2.80;0.82;;;12.60;95.90;;;;;;4860019;29;20049;-85
2023/10/06 04:51:09;;;;;;;2.08;1.05;;;12.60;95.90;;;;;;4862000;29;20045;-85
2023/10/06 04:53:37;;;;;;;4.53;1.55;;;12.70;95.90;;;;;;4866738;29;20091;-85
2023/10/06 04:56:07;;;;;;;3.78;1.33;;;12.70;95.90;;;;;;4881781;29;20058;-85
2023/10/06 04:58:38;;;;;;;2.88;1.20;;;12.60;95.90;;;;;;4881726;29;20063;-86
2023/10/06 05:01:07;;;;;;;3.83;1.20;;;12.60;95.80;;;;;;4881808;29;20052;-86
2023/10/06 05:03:53;;;;;;;4.68;1.83;;;12.60;95.90;;;;;;4882098;29;20064;-85
2023/10/06 05:06:21;;;;;;;3.42;1.33;;;12.60;95.90;;;;;;4881411;29;20052;-86
2023/10/06 05:08:51;;;;;;;2.65;1.10;;;12.60;95.90;;;;;;4863291;29;20056;-86
2023/10/06 05:11:20;;;;;;;2.33;1.10;;;12.70;95.90;;;;;;4866465;29;20060;-85
2023/10/06 05:13:53;;;;;;;4.57;1.50;;;12.60;95.90;;;;;;4881654;29;20052;-85
2023/10/06 05:16:22;;;;;;;4.22;1.60;;;12.60;95.90;;;;;;4881533;29;20421;-85
2023/10/06 05:18:51;;;;;;;4.03;1.52;;;12.60;95.90;;;;;;4881269;29;20053;-85
2023/10/06 05:21:20;;;;;;;3.53;1.63;;;12.60;95.80;;;;;;4881393;29;20052;-85
2023/10/06 05:23:47;;;;;;;4.10;1.48;;;12.60;95.80;;;;;;4881595;29;20055;-85
2023/10/06 05:26:15;;;;;;;3.55;1.30;;;12.60;95.80;;;;;;4884366;29;20048;-85
2023/10/06 05:28:43;;;;;;;5.50;1.92;;;12.60;95.80;;;;;;4869303;29;20049;-85
2023/10/06 05:31:11;;;;;;;6.93;2.05;;;12.60;95.80;;;;;;4885175;29;20041;-86
2023/10/06 05:33:42;;;;;;;4.60;2.30;;;12.60;95.80;;;;;;4884501;29;20088;-85
2023/10/06 05:36:10;;;;;;;6.32;1.83;;;12.70;95.80;;;;;;4869237;29;20052;-85
2023/10/06 05:38:39;;;;;;;4.45;1.70;;;12.70;95.80;;;;;;4884310;29;20054;-85
2023/10/06 05:41:11;;;;;;;4.00;1.73;;;12.70;95.80;;;;;;4884457;29;20052;-85
2023/10/06 05:43:40;;;;;;;3.15;1.20;;;12.70;95.70;;;;;;4854571;29;20411;-85
2023/10/06 05:46:07;;;;;;;4.15;2.05;;;12.70;95.70;;;;;;4868660;29;20080;-85
2023/10/06 05:48:34;;;;;;;6.68;2.83;;;12.70;95.70;;;;;;4883981;29;20480;-85
2023/10/06 05:51:14;;;;;;;5.35;2.78;;;12.70;95.70;;;;;;4883858;29;20052;-85
2023/10/06 05:53:43;;;;;;;5.45;2.65;;;12.70;95.70;;;;;;4878003;29;20070;-85
2023/10/06 05:56:11;;;;;;;4.55;2.25;;;12.70;95.60;;;;;;4865449;29;20063;-85
2023/10/06 05:58:40;;;;;;;4.53;2.50;;;12.70;95.60;;;;;;4871686;29;20049;-85
2023/10/06 06:01:13;;;;;;;5.55;2.47;;;12.70;95.60;;;;;;4850406;29;20053;-85
2023/10/06 06:03:45;;;;;;;5.35;2.35;;;12.80;95.60;;;;;;4864709;29;20143;-85
2023/10/06 06:06:21;;;;;;;5.10;2.30;;;12.80;95.60;;;;;;4865542;29;20520;-85
2023/10/06 06:08:49;;;;;;;5.78;2.13;;;12.80;95.60;;;;;;4869797;29;20045;-84
2023/10/06 06:11:16;;;;;;;5.22;2.80;;;12.80;95.50;;;;;;4884264;29;20048;-85
2023/10/06 06:13:44;;;;;;;8.05;3.65;;;12.80;95.50;;;;;;4883567;29;20044;-85
2023/10/06 06:16:21;;;;;;;7.18;2.90;;;12.90;95.40;;;;;;4885090;29;20060;-85
2023/10/06 06:18:48;;;;;;;5.97;3.10;;;12.90;95.40;;;;;;4883735;29;20095;-85
2023/10/06 06:21:16;;;;;;;7.70;2.40;;;13.00;95.30;;;;;;4868494;29;20128;-86
2023/10/06 06:23:46;;;;;;;4.80;2.13;;;13.00;95.20;;;;;;4883878;29;20060;-86
2023/10/06 06:26:16;;;;;;;4.90;1.67;;;13.00;95.20;;;;;;4884041;29;20507;-87
2023/10/06 06:28:44;;;;;;;4.10;1.50;;;13.10;95.20;;;;;;4868646;29;20151;-86
2023/10/06 06:31:19;;;;;;;3.95;2.15;;;13.10;95.10;;;;;;4883833;29;20045;-87
2023/10/06 06:33:55;;;;;;;4.28;1.80;;;13.10;95.10;;;;;;4883362;29;20123;-87
2023/10/06 06:36:25;;;;;;;4.53;1.55;;;13.20;95.10;;;;;;4883755;29;20143;-94
2023/10/06 06:38:53;;;;;;;5.13;1.95;;;13.20;95.00;;;;;;4884518;29;20131;-95
2023/10/06 06:41:21;;;;;;;3.45;1.73;;;13.30;95.00;;;;;;4869693;29;20083;-92
2023/10/06 06:43:49;;;;;;;6.22;1.60;;;13.30;94.90;;;;;;4869286;29;20047;-94
2023/10/06 06:46:17;;;;;;;3.72;1.10;;;13.40;94.80;;;;;;4885611;29;20045;-88
2023/10/06 06:48:46;;;;;;;3.80;1.67;;;13.40;94.80;;;;;;4869010;29;20648;-90
2023/10/06 06:51:14;;;;;;;5.25;1.98;;;13.50;94.70;;;;;;4883696;29;20487;-91
2023/10/06 06:53:41;;;;;;;5.18;1.95;;;13.60;94.70;;;;;;4865960;29;20056;-90
2023/10/06 06:56:10;;;;;;;4.53;1.60;;;13.60;94.50;;;;;;4878499;29;20139;-96
2023/10/06 06:58:38;;;;;;;3.55;1.40;;;13.60;94.50;;;;;;4883975;29;20116;-91
2023/10/06 07:01:14;;;;;;;3.35;1.23;;;13.60;94.50;;;;;;4884012;29;20048;-88
2023/10/06 07:03:42;;;;;;;2.03;0.95;;;13.60;94.50;;;;;;4883630;29;20055;-88
2023/10/06 07:06:16;;;;;;;4.57;1.42;;;13.60;94.60;;;;;;4883871;29;20144;-93
2023/10/06 07:08:47;;;;;;;4.10;1.42;;;13.60;94.50;;;;;;4884361;29;20052;-91
2023/10/06 07:11:15;;;;;;;3.65;1.33;;;13.60;94.50;;;;;;4883176;29;20452;-89
2023/10/06 07:13:45;;;;;;;3.20;1.33;;;13.60;94.50;;;;;;4882686;29;20084;-82
2023/10/06 07:16:14;;;;;;;2.72;1.05;;;13.60;94.50;;;;;;4868245;29;20063;-83
2023/10/06 07:18:41;;;;;;;3.13;1.35;;;13.60;94.60;;;;;;4868000;29;20108;-84
2023/10/06 07:21:10;;;;;;;3.35;1.30;;;13.60;94.60;;;;;;4882743;29;20048;-85
2023/10/06 07:23:38;;;;;;;2.63;0.95;;;13.60;94.60;;;;;;4883008;29;20076;-91
2023/10/06 07:26:13;;;;;;;7.40;1.30;;;13.50;94.60;;;;;;4883706;29;20118;-93
2023/10/06 07:28:40;;;;;;;4.47;1.45;;;13.60;94.60;;;;;;4884180;29;20045;-92
2023/10/06 07:31:12;;;;;;;2.88;1.10;;;13.60;94.50;;;;;;4883516;29;20056;-86
2023/10/06 07:33:42;;;;;;;7.07;1.20;;;13.60;94.50;;;;;;4878332;29;20056;-91
2023/10/06 07:36:17;;;;;;;4.22;1.30;;;13.60;94.50;;;;;;4869307;29;20147;-93
2023/10/06 07:38:45;;;;;;;4.65;1.50;;;13.70;94.40;;;;;;4883418;29;20123;-96
2023/10/06 07:41:20;;;;;;;6.40;1.75;;;13.80;94.40;;;;;;4884290;29;20498;-94
2023/10/06 07:43:48;;;;;;;4.28;1.48;;;13.80;94.20;;;;;;4883305;29;20056;-93
2023/10/06 07:46:19;;;;;;;4.68;1.67;;;13.90;94.20;;;;;;4883779;29;20044;-96
2023/10/06 07:48:47;;;;;;;3.70;1.70;;;14.00;94.00;;;;;;4868151;29;20135;-87
2023/10/06 07:51:16;;;;;;;4.47;1.23;;;14.00;94.00;;;;;;4882899;29;20079;-87
2023/10/06 07:53:43;;;;;;;6.72;1.67;;;14.10;94.00;;;;;;4852691;29;20068;-89
2023/10/06 07:56:18;;;;;;;6.43;1.80;;;14.10;93.80;;;;;;4883285;29;20079;-95
2023/10/06 07:58:46;;;;;;;4.57;1.65;;;14.20;93.80;;;;;;4874974;29;20079;-92
2023/10/06 08:01:13;;;;;;;4.72;1.55;;;14.30;93.80;;;;;;4883395;29;20053;-89
2023/10/06 08:03:45;;;;;;;4.60;1.85;;;14.40;93.70;;;;;;4883025;29;20059;-93
2023/10/06 08:06:13;;;;;;;4.10;1.60;;;14.50;93.50;;;;;;4899607;29;20048;-93
2023/10/06 08:08:41;;;;;;;4.95;1.55;;;14.60;93.50;;;;;;4898848;29;20052;-91
2023/10/06 08:11:13;;;;;;;3.63;1.77;;;14.70;93.40;;;;;;4898863;29;20060;-91
2023/10/06 08:13:42;;;;;;;3.47;1.50;;;14.80;93.30;;;;;;4898373;29;20116;-88
2023/10/06 08:16:11;;;;;;;5.25;1.48;;;14.80;93.30;;;;;;4898517;29;20135;-87
2023/10/06 08:18:39;;;;;;;3.72;1.38;;;14.90;93.20;;;;;;4867177;29;20053;-87
2023/10/06 08:21:07;;;;;;;5.55;1.30;;;15.00;93.20;;;;;;4882784;29;20104;-91
2023/10/06 08:23:37;;;;;;;3.00;1.20;;;15.10;93.10;;;;;;4882861;29;20491;-88
2023/10/06 08:26:09;;;;;;;2.38;1.10;;;15.10;93.10;;;;;;4866981;29;20139;-87
2023/10/06 08:28:38;;;;;;;6.43;1.92;;;15.20;93.10;;;;;;4882574;29;20139;-88
2023/10/06 08:31:16;;;;;;;4.30;1.70;;;15.30;92.90;;;;;;4867701;29;20049;-90
2023/10/06 08:33:45;;;;;;;6.03;1.75;;;15.40;92.90;;;;;;4888433;29;20064;-87
2023/10/06 08:36:12;;;;;;;5.60;1.77;;;15.50;92.80;;;;;;4900466;29;20139;-92
2023/10/06 08:38:40;;;;;;;3.97;1.58;;;15.60;92.60;;;;;;4886921;29;20120;-90
2023/10/06 08:41:08;;;;;;;3.60;1.80;;;15.70;92.60;;;;;;4899187;29;20049;-88
2023/10/06 08:43:38;;;;;;;5.15;1.25;;;15.80;92.50;;;;;;4860851;29;20077;-88
2023/10/06 08:46:06;;;;;;;6.43;2.10;;;15.90;92.40;;;;;;4882062;29;20041;-88
2023/10/06 08:48:35;;;;;;;4.85;1.38;;;16.00;92.40;;;;;;4868080;29;20049;-88
2023/10/06 08:51:07;;;;;;;6.13;1.42;;;16.10;92.30;;;;;;4867552;29;20060;-89
2023/10/06 08:53:38;;;;;;;4.15;1.58;;;16.20;92.20;;;;;;4882899;29;20487;-89
2023/10/06 08:56:06;;;;;;;4.57;1.92;;;16.30;92.20;;;;;;4882905;29;20044;-91
2023/10/06 08:58:35;;;;;;;3.47;1.50;;;16.40;92.00;;;;;;4867339;29;20053;-88
2023/10/06 09:01:05;;;;;;;6.40;2.05;;;16.50;91.90;;;;;;4869507;29;20049;-90
2023/10/06 09:03:33;;;;;;;5.90;2.20;;;16.60;91.70;;;;;;4871444;29;20515;-89
2023/10/06 09:06:00;;;;;;;4.75;2.20;;;16.70;91.50;;;;;;4870660;29;20452;-90
2023/10/06 09:08:39;;;;;;;4.43;1.73;;;16.70;91.50;;;;;;4886171;29;20487;-90
2023/10/06 09:11:06;;;;;;;4.85;1.67;;;16.80;91.30;;;;;;4885979;29;20144;-89
2023/10/06 09:13:34;;;;;;;7.18;1.75;;;16.80;91.40;;;;;;4870485;29;20055;-88
2023/10/06 09:16:03;;;;;;;5.20;1.80;;;16.90;91.40;;;;;;4870879;29;20058;-89
2023/10/06 09:18:34;;;;;;;5.53;2.25;;;17.00;91.40;;;;;;4870836;29;20562;-89
2023/10/06 09:21:21;;;;;;;4.35;1.60;;;17.10;91.10;;;;;;4885320;29;20502;-88
2023/10/06 09:23:52;;;;;;;5.78;1.90;;;17.10;91.20;;;;;;4870331;29;20052;-89
2023/10/06 09:26:31;;;;;;;8.25;2.38;;;17.20;91.10;;;;;;4885659;29;20406;-89
2023/10/06 09:29:01;;;;;;;5.32;2.20;;;17.30;91.00;;;;;;4885901;29;20055;-91
2023/10/06 09:31:51;;;;;;;4.60;2.03;;;17.30;91.00;;;;;;4875906;29;20471;-89
2023/10/06 09:34:25;;;;;;;7.90;2.25;;;17.40;90.80;;;;;;4867333;29;20135;-93
2023/10/06 09:36:53;;;;;;;6.55;2.53;;;17.40;90.60;;;;;;4866785;29;20084;-87
2023/10/06 09:39:32;;;;;;;9.77;2.70;;;17.50;90.60;;;;;;4884953;29;20052;-92
2023/10/06 09:42:05;;;;;;;7.03;3.05;;;17.50;90.40;;;;;;4870314;29;20048;-90
2023/10/06 09:44:35;;;;;;;10.05;2.70;;;17.40;90.30;;;;;;4885460;29;20140;-90
2023/10/06 09:47:08;;;;;;;7.45;2.53;;;17.40;90.30;;;;;;4885489;29;20137;-91
2023/10/06 09:49:37;;;;;;;6.13;1.95;;;17.40;90.40;;;;;;4870475;29;20140;-93
2023/10/06 09:52:06;;;;;;;4.57;2.17;;;17.40;90.50;;;;;;4869990;29;20079;-89
2023/10/06 09:54:35;;;;;;;5.43;2.08;;;17.40;90.50;;;;;;4885285;29;20053;-89
2023/10/06 09:57:03;;;;;;;6.97;2.63;;;17.50;90.60;;;;;;4884926;29;20049;-90
2023/10/06 09:59:32;;;;;;;5.13;2.25;;;17.50;90.40;;;;;;4885320;29;20087;-90
2023/10/06 10:02:03;;;;;;;11.57;3.50;;;17.60;90.50;;;;;;4885243;29;20052;-92
2023/10/06 10:04:33;;;;;;;8.02;2.42;;;17.50;90.30;;;;;;4870029;29;20049;-92
2023/10/06 10:07:01;;;;;;;7.90;3.00;;;17.50;90.30;;;;;;4885409;29;20059;-92
2023/10/06 10:09:34;;;;;;;4.25;1.70;;;17.50;90.10;;;;;;4869832;29;20053;-89
2023/10/06 10:12:27;;;;;;;7.88;2.28;;;17.60;90.20;;;;;;4884727;29;20052;-89
2023/10/06 10:15:35;;;;;;;5.40;2.45;;;17.60;90.10;;;;;;4884892;29;20116;-91
2023/10/06 10:18:24;;;;;;;9.07;2.05;;;17.70;90.20;;;;;;4884554;29;20060;-90
2023/10/06 10:20:52;;;;;;;6.18;1.73;;;17.70;90.20;;;;;;4884623;29;20460;-87
2023/10/06 10:23:22;;;;;;;5.70;1.63;;;17.80;90.30;;;;;;4885211;29;20152;-91
2023/10/06 10:25:51;;;;;;;5.00;2.22;;;17.90;90.20;;;;;;4869613;29;20068;-90
2023/10/06 10:28:27;;;;;;;5.93;1.85;;;18.10;89.90;;;;;;4884776;29;20498;-91
2023/10/06 10:30:59;;;;;;;11.68;2.03;;;18.10;89.60;;;;;;4885122;29;20549;-91
2023/10/06 10:33:33;;;;;;;4.85;1.50;;;18.30;89.20;;;;;;4884725;29;20045;-91
2023/10/06 10:36:16;;;;;;;7.38;2.63;;;18.40;89.20;;;;;;4884573;29;20057;-91
2023/10/06 10:38:55;;;;;;;6.53;2.38;;;18.60;88.60;;;;;;4884100;29;20093;-87
2023/10/06 10:41:26;;;;;;;5.18;2.50;;;18.70;88.20;;;;;;4883851;29;20124;-89
2023/10/06 10:43:56;;;;;;;4.57;1.83;;;18.80;87.50;;;;;;4868883;29;20044;-87
2023/10/06 10:46:56;;;;;;;7.15;2.22;;;18.90;87.30;;;;;;4870564;29;20300;-90
2023/10/06 10:49:24;;;;;;;7.70;2.33;;;19.10;86.80;;;;;;4884278;29;20083;-93
2023/10/06 10:52:08;;;;;;;5.97;1.88;;;19.00;86.40;;;;;;4883560;29;20052;-87
2023/10/06 10:54:40;;;;;;;4.13;1.85;;;19.10;86.60;;;;;;4883584;29;20055;-88
2023/10/06 10:57:13;;;;;;;5.95;2.63;;;19.00;86.40;;;;;;4885654;29;20067;-92
2023/10/06 11:00:20;;;;;;;5.32;2.55;;;19.00;86.00;;;;;;4885144;29;20063;-95
2023/10/06 11:02:47;;;;;;;6.32;2.25;;;18.90;85.80;;;;;;4899935;29;20143;-94
2023/10/06 11:05:19;;;;;;;5.28;1.83;;;18.80;85.90;;;;;;4884202;29;20140;-90
2023/10/06 11:08:01;;;;;;;5.65;2.03;;;18.80;85.90;;;;;;4878617;29;20143;-91
2023/10/06 11:10:33;;;;;;;4.32;1.40;;;18.80;85.70;;;;;;4884344;29;20044;-95
2023/10/06 11:13:13;;;;;;;5.40;2.00;;;18.80;85.90;;;;;;4883538;29;20059;-94
2023/10/06 11:15:41;;;;;;;5.47;2.58;;;18.80;85.40;;;;;;4883973;29;20063;-94
2023/10/06 11:18:13;;;;;;;4.82;2.60;;;18.80;85.00;;;;;;4883674;29;20052;-90
2023/10/06 11:20:40;;;;;;;5.03;1.80;;;18.80;84.90;;;;;;4882947;29;20049;-91
2023/10/06 11:23:08;;;;;;;8.57;2.20;;;18.90;85.00;;;;;;4852513;29;20051;-91
2023/10/06 11:25:48;;;;;;;6.97;2.13;;;18.90;84.70;;;;;;4884031;29;20104;-91
2023/10/06 11:28:15;;;;;;;5.38;2.00;;;19.00;85.00;;;;;;4885372;29;20052;-96
2023/10/06 11:30:43;;;;;;;7.60;2.15;;;19.00;84.40;;;;;;4884711;29;20041;-96
2023/10/06 11:33:13;;;;;;;4.82;1.73;;;19.00;84.40;;;;;;4855103;29;20048;-96
2023/10/06 11:35:41;;;;;;;3.47;1.98;;;19.00;84.40;;;;;;4883796;29;20052;-92
2023/10/06 11:38:11;;;;;;;5.47;2.10;;;19.00;84.50;;;;;;4868111;29;20104;-90
2023/10/06 11:40:44;;;;;;;5.25;1.73;;;19.00;83.30;;;;;;4883287;29;20049;-92
2023/10/06 11:43:14;;;;;;;7.13;2.85;;;19.00;83.70;;;;;;4885264;29;20092;-92
2023/10/06 11:45:42;;;;;;;4.85;1.70;;;19.00;83.30;;;;;;4883448;29;20079;-91
2023/10/06 11:48:28;;;;;;;4.57;1.48;;;19.10;83.80;;;;;;4868122;29;20064;-90
2023/10/06 11:51:08;;;;;;;6.28;2.10;;;19.30;84.00;;;;;;4873398;29;20148;-90
2023/10/06 11:53:36;;;;;;;5.07;1.80;;;19.40;83.40;;;;;;4865358;29;20483;-92
2023/10/06 11:56:20;;;;;;;10.10;2.78;;;19.40;82.90;;;;;;4864828;29;20049;-96
2023/10/06 11:58:48;;;;;;;5.90;2.40;;;19.50;81.80;;;;;;4856076;29;20525;-92
2023/10/06 12:01:36;;;;;;;7.00;1.90;;;19.50;82.00;;;;;;4883082;29;20144;-89
2023/10/06 12:04:08;;;;;;;7.28;2.92;;;19.60;81.70;;;;;;4883391;29;20135;-90
2023/10/06 12:06:39;;;;;;;;;;;19.70;81.20;;;;;;4883715;29;20163;-91
2023/10/06 12:09:15;;;;;;;7.20;2.60;;;19.70;81.30;;;;;;4882825;29;19923;-90
2023/10/06 12:11:42;;;;;;;7.13;2.53;;;19.80;81.20;;;;;;4883122;29;20053;-93
2023/10/06 12:14:10;;;;;;;7.53;2.72;;;19.90;80.60;;;;;;4882604;29;20116;-90
2023/10/06 12:16:44;;;;;;;6.85;2.10;;;20.00;80.10;;;;;;4882560;29;20060;-93
2023/10/06 12:19:13;;;;;;;7.75;2.40;;;20.10;80.50;;;;;;4883127;29;20060;-90
2023/10/06 12:21:40;;;;;;;5.38;2.90;;;20.10;80.10;;;;;;4882786;29;20052;-91
2023/10/06 12:24:11;;;;;;;8.25;2.42;;;20.10;79.70;;;;;;4867684;29;20136;-93
2023/10/06 12:26:39;;;;;;;5.40;2.08;;;20.00;79.90;;;;;;4882515;29;20052;-90
2023/10/06 12:29:06;;;;;;;5.93;2.20;;;20.00;80.40;;;;;;4882569;29;20463;-90
2023/10/06 12:31:36;;;;;;;4.85;1.55;;;19.90;80.90;;;;;;4882829;29;20112;-89
2023/10/06 12:34:04;;;;;;;8.13;2.88;;;19.90;81.20;;;;;;4882110;29;20046;-89
2023/10/06 12:36:35;;;;;;;8.43;3.22;;;19.90;80.70;;;;;;4858729;29;20393;-93
2023/10/06 12:39:05;;;;;;;5.38;2.50;;;19.90;80.50;;;;;;4870021;29;20052;-91
2023/10/06 12:41:35;;;;;;;7.78;2.85;;;19.80;80.50;;;;;;4886266;29;20049;-92
2023/10/06 12:44:04;;;;;;;7.10;2.72;;;19.70;80.40;;;;;;4886107;29;20056;-90
2023/10/06 12:46:37;;;;;;;;;;;19.70;80.60;;;;;;4886428;29;20049;-89
2023/10/06 12:49:06;;;;;;;6.97;2.17;;;19.70;80.90;;;;;;4886223;29;20552;-91
2023/10/06 12:51:35;;;;;;;4.82;1.90;;;19.80;81.00;;;;;;4886410;29;20053;-91
2023/10/06 12:54:03;;;;;;;4.85;1.73;;;19.90;80.90;;;;;;4886329;29;20053;-89
2023/10/06 12:56:31;;;;;;;2.88;1.30;;;20.00;81.00;;;;;;4870753;29;20084;-89
2023/10/06 12:58:58;;;;;;;4.70;1.20;;;20.10;81.10;;;;;;4870632;29;20432;-89
2023/10/06 13:01:30;;;;;;;3.35;1.65;;;20.30;81.20;;;;;;4885864;29;20518;-88
2023/10/06 13:03:58;;;;;;;3.58;1.48;;;20.30;80.80;;;;;;4885983;29;20055;-90
2023/10/06 13:06:25;;;;;;;4.72;1.60;;;20.30;80.70;;;;;;4870943;29;20040;-89
2023/10/06 13:08:52;;;;;;;5.32;1.98;;;20.30;81.00;;;;;;4894921;29;20032;-90
2023/10/06 13:11:21;;;;;;;4.50;1.70;;;20.30;81.00;;;;;;4905567;29;20053;-89
2023/10/06 13:13:52;;;;;;;7.15;2.35;;;20.30;81.10;;;;;;4908090;29;20071;-91
2023/10/06 13:16:20;;;;;;;5.60;2.38;;;20.30;80.60;;;;;;4918566;29;20068;-91
2023/10/06 13:18:49;;;;;;;6.70;1.95;;;20.30;80.20;;;;;;4895461;29;20052;-89
2023/10/06 13:21:16;;;;;;;5.70;2.17;;;20.30;80.50;;;;;;4890177;29;20483;-89
2023/10/06 13:23:46;;;;;;;3.47;1.33;;;20.30;80.20;;;;;;4887753;29;20067;-89